Inversion Research: Above Escarpment

*Note: All times are displayed in the local standard time of the station location.
**Rain - Equipment is designed to accurately record liquid precipitation; under conditions when precipitation is not in liquid form, the data displayed may not properly reflect rainfall values.

Date Max Temp
(°C)
Min Temp
(°C)
Avg Temp
(°C)
Rain (mm) Avg RH (%)
Fri, Dec 14, 2018 6.4 0.5 3.7 - 94.9
Thu, Dec 13, 2018 6.2 -1.0 1.5 - 97.6
Wed, Dec 12, 2018 1.4 -5.4 -1.2 - 93.8
Tue, Dec 11, 2018 -0.3 -1.9 -1.2 - 91.5
Mon, Dec 10, 2018 0.9 -2.9 -1.0 - 90.5
Sun, Dec 09, 2018 0.8 -8.6 -3.3 - 84.3
Sat, Dec 08, 2018 -0.4 -7.0 -3.5 - 83.8
DateTime Avg Temp (°C) Rain (mm) RH (%)
Sat, Dec 15, 2018 15:00 3.3 - 96.6
Sat, Dec 15, 2018 14:00 3.6 - 94.3
Sat, Dec 15, 2018 13:00 3.8 - 94.2
Sat, Dec 15, 2018 12:00 3.2 - 99.8
Sat, Dec 15, 2018 11:00 2.4 - 100.0
Sat, Dec 15, 2018 10:00 1.8 - 100.0
Sat, Dec 15, 2018 09:00 1.2 - 100.0
Sat, Dec 15, 2018 08:00 1.4 - 100.0
Sat, Dec 15, 2018 07:00 1.4 - 100.0
Sat, Dec 15, 2018 06:00 1.4 - 100.0
Sat, Dec 15, 2018 05:00 1.2 - 100.0
Sat, Dec 15, 2018 04:00 1.9 - 100.0
Sat, Dec 15, 2018 03:00 2.2 - 100.0
Sat, Dec 15, 2018 02:00 2.1 - 100.0
Sat, Dec 15, 2018 01:00 3.1 - 99.3
Sat, Dec 15, 2018 00:00 4.0 - 97.3
Fri, Dec 14, 2018 23:00 4.4 - 94.9
Fri, Dec 14, 2018 22:00 4.4 - 93.5
Fri, Dec 14, 2018 21:00 4.4 - 92.9
Fri, Dec 14, 2018 20:00 4.2 - 91.7
Fri, Dec 14, 2018 19:00 4.4 - 89.8
Fri, Dec 14, 2018 18:00 4.9 - 85.8
Fri, Dec 14, 2018 17:00 5.5 - 83.6
Fri, Dec 14, 2018 16:00 6.0 - 86.1
Fri, Dec 14, 2018 15:00 5.6 - 91.6
Fri, Dec 14, 2018 14:00 5.1 - 93.6
Fri, Dec 14, 2018 13:00 4.5 - 97.2
Fri, Dec 14, 2018 12:00 4.0 - 100.0
Fri, Dec 14, 2018 11:00 3.6 - 100.0
Fri, Dec 14, 2018 10:00 3.7 - 96.5
Fri, Dec 14, 2018 09:00 3.7 - 94.4
Fri, Dec 14, 2018 08:00 3.3 - 96.5
Fri, Dec 14, 2018 07:00 2.8 - 97.2
Fri, Dec 14, 2018 06:00 2.4 - 97.3
Fri, Dec 14, 2018 05:00 1.9 - 98.5
Fri, Dec 14, 2018 04:00 1.6 - 99.0
Fri, Dec 14, 2018 03:00 1.0 - 100.0
Fri, Dec 14, 2018 02:00 1.4 - 100.0
Fri, Dec 14, 2018 01:00 1.3 - 100.0
Fri, Dec 14, 2018 00:00 1.0 - 99.3
Thu, Dec 13, 2018 23:00 1.5 - 96.5
Thu, Dec 13, 2018 22:00 1.1 - 99.7
Thu, Dec 13, 2018 21:00 0.5 - 100.0
Thu, Dec 13, 2018 20:00 0.8 - 100.0
Thu, Dec 13, 2018 19:00 1.5 - 100.0
Thu, Dec 13, 2018 18:00 1.7 - 100.0
Thu, Dec 13, 2018 17:00 2.1 - 99.1
Thu, Dec 13, 2018 16:00 2.9 - 96.2


asterix Register now to access more data! asterix